sensor_id;sensor_type;location;lat;lon;timestamp;temperature;humidity
81488;DHT22;70897;52.464;13.428;2023-09-18T00:00:25;18.50;94.10
81488;DHT22;70897;52.464;13.428;2023-09-18T00:03:10;18.40;94.20
81488;DHT22;70897;52.464;13.428;2023-09-18T00:05:55;18.40;94.30
81488;DHT22;70897;52.464;13.428;2023-09-18T00:08:40;18.40;94.30
81488;DHT22;70897;52.464;13.428;2023-09-18T00:11:26;18.40;94.30
81488;DHT22;70897;52.464;13.428;2023-09-18T00:14:11;18.40;94.20
81488;DHT22;70897;52.464;13.428;2023-09-18T00:16:56;18.40;94.40
81488;DHT22;70897;52.464;13.428;2023-09-18T00:19:43;18.40;94.40
81488;DHT22;70897;52.464;13.428;2023-09-18T00:22:28;18.30;94.40
81488;DHT22;70897;52.464;13.428;2023-09-18T00:25:13;18.30;94.60
81488;DHT22;70897;52.464;13.428;2023-09-18T00:28:00;18.30;94.50
81488;DHT22;70897;52.464;13.428;2023-09-18T00:30:49;18.30;94.70
81488;DHT22;70897;52.464;13.428;2023-09-18T00:33:35;18.30;94.60
81488;DHT22;70897;52.464;13.428;2023-09-18T00:36:20;18.30;94.70
81488;DHT22;70897;52.464;13.428;2023-09-18T00:39:05;18.20;94.70
81488;DHT22;70897;52.464;13.428;2023-09-18T00:41:50;18.20;94.70
81488;DHT22;70897;52.464;13.428;2023-09-18T00:44:40;18.20;94.80
81488;DHT22;70897;52.464;13.428;2023-09-18T00:47:26;18.30;94.70
81488;DHT22;70897;52.464;13.428;2023-09-18T00:50:12;18.20;94.80
81488;DHT22;70897;52.464;13.428;2023-09-18T00:52:59;18.20;94.90
81488;DHT22;70897;52.464;13.428;2023-09-18T00:55:45;18.20;95.00
81488;DHT22;70897;52.464;13.428;2023-09-18T00:58:31;18.20;95.00
81488;DHT22;70897;52.464;13.428;2023-09-18T01:01:18;18.10;95.20
81488;DHT22;70897;52.464;13.428;2023-09-18T01:04:07;18.10;95.30
81488;DHT22;70897;52.464;13.428;2023-09-18T01:06:52;18.00;95.50
81488;DHT22;70897;52.464;13.428;2023-09-18T01:09:40;18.00;95.70
81488;DHT22;70897;52.464;13.428;2023-09-18T01:12:40;18.00;95.90
81488;DHT22;70897;52.464;13.428;2023-09-18T01:15:38;17.90;95.90
81488;DHT22;70897;52.464;13.428;2023-09-18T01:18:27;17.90;96.10
81488;DHT22;70897;52.464;13.428;2023-09-18T01:21:12;17.90;96.10
81488;DHT22;70897;52.464;13.428;2023-09-18T01:23:57;17.90;96.10
81488;DHT22;70897;52.464;13.428;2023-09-18T01:26:42;17.90;96.20
81488;DHT22;70897;52.464;13.428;2023-09-18T01:29:27;17.90;96.30
81488;DHT22;70897;52.464;13.428;2023-09-18T01:32:14;17.80;96.30
81488;DHT22;70897;52.464;13.428;2023-09-18T01:35:01;17.70;96.40
81488;DHT22;70897;52.464;13.428;2023-09-18T01:37:47;17.70;96.50
81488;DHT22;70897;52.464;13.428;2023-09-18T01:40:32;17.70;96.70
81488;DHT22;70897;52.464;13.428;2023-09-18T01:43:17;17.70;96.80
81488;DHT22;70897;52.464;13.428;2023-09-18T01:46:02;17.70;96.90
81488;DHT22;70897;52.464;13.428;2023-09-18T01:48:48;17.60;96.90
81488;DHT22;70897;52.464;13.428;2023-09-18T01:51:33;17.60;96.90
81488;DHT22;70897;52.464;13.428;2023-09-18T01:54:18;17.60;96.90
81488;DHT22;70897;52.464;13.428;2023-09-18T01:57:03;17.50;97.00
81488;DHT22;70897;52.464;13.428;2023-09-18T01:59:49;17.50;97.10
81488;DHT22;70897;52.464;13.428;2023-09-18T02:02:35;17.50;97.30
81488;DHT22;70897;52.464;13.428;2023-09-18T02:05:21;17.50;97.20
81488;DHT22;70897;52.464;13.428;2023-09-18T02:08:06;17.50;97.30
81488;DHT22;70897;52.464;13.428;2023-09-18T02:10:51;17.60;97.00
81488;DHT22;70897;52.464;13.428;2023-09-18T02:13:36;17.50;97.00
81488;DHT22;70897;52.464;13.428;2023-09-18T02:16:22;17.50;97.10
81488;DHT22;70897;52.464;13.428;2023-09-18T02:19:08;17.50;97.10
81488;DHT22;70897;52.464;13.428;2023-09-18T02:21:56;17.50;97.00
81488;DHT22;70897;52.464;13.428;2023-09-18T02:24:42;17.50;97.00
81488;DHT22;70897;52.464;13.428;2023-09-18T02:27:27;17.40;97.10
81488;DHT22;70897;52.464;13.428;2023-09-18T02:30:13;17.50;97.20
81488;DHT22;70897;52.464;13.428;2023-09-18T02:32:58;17.50;97.20
81488;DHT22;70897;52.464;13.428;2023-09-18T02:35:44;17.40;97.30
81488;DHT22;70897;52.464;13.428;2023-09-18T02:38:29;17.40;97.50
81488;DHT22;70897;52.464;13.428;2023-09-18T02:41:17;17.30;97.60
81488;DHT22;70897;52.464;13.428;2023-09-18T02:44:02;17.30;97.60
81488;DHT22;70897;52.464;13.428;2023-09-18T02:46:47;17.30;97.90
81488;DHT22;70897;52.464;13.428;2023-09-18T02:49:32;17.30;98.00
81488;DHT22;70897;52.464;13.428;2023-09-18T02:52:17;17.30;97.90
81488;DHT22;70897;52.464;13.428;2023-09-18T02:55:03;17.30;97.80
81488;DHT22;70897;52.464;13.428;2023-09-18T02:57:48;17.20;97.90
81488;DHT22;70897;52.464;13.428;2023-09-18T03:00:33;17.20;98.00
81488;DHT22;70897;52.464;13.428;2023-09-18T03:03:18;17.10;98.10
81488;DHT22;70897;52.464;13.428;2023-09-18T03:06:04;17.20;98.30
81488;DHT22;70897;52.464;13.428;2023-09-18T03:08:49;17.10;98.30
81488;DHT22;70897;52.464;13.428;2023-09-18T03:11:35;17.10;98.40
81488;DHT22;70897;52.464;13.428;2023-09-18T03:14:20;17.10;98.30
81488;DHT22;70897;52.464;13.428;2023-09-18T03:17:05;17.10;98.50
81488;DHT22;70897;52.464;13.428;2023-09-18T03:19:50;17.10;98.50
81488;DHT22;70897;52.464;13.428;2023-09-18T03:22:36;17.00;98.50
81488;DHT22;70897;52.464;13.428;2023-09-18T03:25:21;17.00;98.50
81488;DHT22;70897;52.464;13.428;2023-09-18T03:28:06;17.00;99.00
81488;DHT22;70897;52.464;13.428;2023-09-18T03:30:52;17.00;98.50
81488;DHT22;70897;52.464;13.428;2023-09-18T03:33:40;16.90;98.60
81488;DHT22;70897;52.464;13.428;2023-09-18T03:36:25;16.90;98.80
81488;DHT22;70897;52.464;13.428;2023-09-18T03:39:10;16.90;99.00
81488;DHT22;70897;52.464;13.428;2023-09-18T03:41:55;16.80;99.00
81488;DHT22;70897;52.464;13.428;2023-09-18T03:44:40;16.90;98.90
81488;DHT22;70897;52.464;13.428;2023-09-18T03:47:25;16.90;98.90
81488;DHT22;70897;52.464;13.428;2023-09-18T03:50:11;16.90;99.10
81488;DHT22;70897;52.464;13.428;2023-09-18T03:52:57;16.90;99.10
81488;DHT22;70897;52.464;13.428;2023-09-18T03:55:42;16.80;99.00
81488;DHT22;70897;52.464;13.428;2023-09-18T03:58:27;16.80;99.20
81488;DHT22;70897;52.464;13.428;2023-09-18T04:01:12;16.70;99.40
81488;DHT22;70897;52.464;13.428;2023-09-18T04:03:57;16.70;99.50
81488;DHT22;70897;52.464;13.428;2023-09-18T04:06:43;16.60;99.70
81488;DHT22;70897;52.464;13.428;2023-09-18T04:09:28;16.60;99.80
81488;DHT22;70897;52.464;13.428;2023-09-18T04:12:13;16.70;99.90
81488;DHT22;70897;52.464;13.428;2023-09-18T04:14:59;16.60;99.90
81488;DHT22;70897;52.464;13.428;2023-09-18T04:17:44;16.60;99.90
81488;DHT22;70897;52.464;13.428;2023-09-18T04:20:29;16.60;99.90
81488;DHT22;70897;52.464;13.428;2023-09-18T04:23:25;16.50;99.90
81488;DHT22;70897;52.464;13.428;2023-09-18T04:26:10;16.60;99.90
81488;DHT22;70897;52.464;13.428;2023-09-18T04:28:58;16.70;99.90
81488;DHT22;70897;52.464;13.428;2023-09-18T04:31:44;16.70;99.80
81488;DHT22;70897;52.464;13.428;2023-09-18T04:34:29;16.70;99.80
81488;DHT22;70897;52.464;13.428;2023-09-18T04:37:15;16.70;99.90
81488;DHT22;70897;52.464;13.428;2023-09-18T04:39:59;16.60;99.90
81488;DHT22;70897;52.464;13.428;2023-09-18T04:42:45;16.60;99.90
81488;DHT22;70897;52.464;13.428;2023-09-18T04:45:31;16.60;99.90
81488;DHT22;70897;52.464;13.428;2023-09-18T04:48:16;16.70;99.90
81488;DHT22;70897;52.464;13.428;2023-09-18T04:51:03;16.60;99.90
81488;DHT22;70897;52.464;13.428;2023-09-18T04:53:49;16.60;99.90
81488;DHT22;70897;52.464;13.428;2023-09-18T04:56:34;16.60;99.90
81488;DHT22;70897;52.464;13.428;2023-09-18T04:59:19;16.60;99.90
81488;DHT22;70897;52.464;13.428;2023-09-18T05:02:04;16.60;99.90
81488;DHT22;70897;52.464;13.428;2023-09-18T05:04:49;16.70;99.90
81488;DHT22;70897;52.464;13.428;2023-09-18T05:07:36;16.70;99.90
81488;DHT22;70897;52.464;13.428;2023-09-18T05:10:21;16.80;99.70
81488;DHT22;70897;52.464;13.428;2023-09-18T05:13:06;16.80;99.50
81488;DHT22;70897;52.464;13.428;2023-09-18T05:15:51;16.90;99.30
81488;DHT22;70897;52.464;13.428;2023-09-18T05:18:37;17.00;99.00
81488;DHT22;70897;52.464;13.428;2023-09-18T05:21:22;17.20;98.50
81488;DHT22;70897;52.464;13.428;2023-09-18T05:24:09;17.30;98.30
81488;DHT22;70897;52.464;13.428;2023-09-18T05:26:54;17.40;98.00
81488;DHT22;70897;52.464;13.428;2023-09-18T05:29:39;17.50;97.30
81488;DHT22;70897;52.464;13.428;2023-09-18T05:32:24;17.70;96.90
81488;DHT22;70897;52.464;13.428;2023-09-18T05:35:09;17.90;96.50
81488;DHT22;70897;52.464;13.428;2023-09-18T05:37:57;18.00;95.90
81488;DHT22;70897;52.464;13.428;2023-09-18T05:40:43;18.20;95.50
81488;DHT22;70897;52.464;13.428;2023-09-18T05:43:29;18.30;94.90
81488;DHT22;70897;52.464;13.428;2023-09-18T05:46:15;18.40;94.60
81488;DHT22;70897;52.464;13.428;2023-09-18T05:49:00;18.70;93.90
81488;DHT22;70897;52.464;13.428;2023-09-18T05:51:45;19.00;93.00
81488;DHT22;70897;52.464;13.428;2023-09-18T05:54:32;19.50;92.40
81488;DHT22;70897;52.464;13.428;2023-09-18T05:57:18;20.20;90.30
81488;DHT22;70897;52.464;13.428;2023-09-18T06:00:04;20.60;87.00
81488;DHT22;70897;52.464;13.428;2023-09-18T06:02:57;20.80;85.70
81488;DHT22;70897;52.464;13.428;2023-09-18T06:05:42;21.30;83.30
81488;DHT22;70897;52.464;13.428;2023-09-18T06:08:27;21.40;82.60
81488;DHT22;70897;52.464;13.428;2023-09-18T06:11:13;21.60;80.90
81488;DHT22;70897;52.464;13.428;2023-09-18T06:13:58;21.70;80.20
81488;DHT22;70897;52.464;13.428;2023-09-18T06:16:43;21.40;82.10
81488;DHT22;70897;52.464;13.428;2023-09-18T06:19:28;21.60;80.70
81488;DHT22;70897;52.464;13.428;2023-09-18T06:22:14;21.70;79.90
81488;DHT22;70897;52.464;13.428;2023-09-18T06:24:59;21.90;78.90
81488;DHT22;70897;52.464;13.428;2023-09-18T06:27:44;22.50;77.80
81488;DHT22;70897;52.464;13.428;2023-09-18T06:30:30;23.20;74.60
81488;DHT22;70897;52.464;13.428;2023-09-18T06:33:18;23.50;72.50
81488;DHT22;70897;52.464;13.428;2023-09-18T06:36:03;24.00;70.90
81488;DHT22;70897;52.464;13.428;2023-09-18T06:38:48;24.80;66.70
81488;DHT22;70897;52.464;13.428;2023-09-18T06:41:33;25.60;63.70
81488;DHT22;70897;52.464;13.428;2023-09-18T06:44:18;25.60;62.70
81488;DHT22;70897;52.464;13.428;2023-09-18T06:47:03;25.90;61.10
81488;DHT22;70897;52.464;13.428;2023-09-18T06:49:48;25.50;62.30
81488;DHT22;70897;52.464;13.428;2023-09-18T06:52:33;25.50;60.80
81488;DHT22;70897;52.464;13.428;2023-09-18T06:55:18;25.10;62.20
81488;DHT22;70897;52.464;13.428;2023-09-18T06:58:03;25.60;61.50
81488;DHT22;70897;52.464;13.428;2023-09-18T07:00:48;26.60;58.10
81488;DHT22;70897;52.464;13.428;2023-09-18T07:03:35;26.90;57.30
81488;DHT22;70897;52.464;13.428;2023-09-18T07:06:20;28.00;55.10
81488;DHT22;70897;52.464;13.428;2023-09-18T07:09:06;28.80;52.10
81488;DHT22;70897;52.464;13.428;2023-09-18T07:11:52;29.50;51.00
81488;DHT22;70897;52.464;13.428;2023-09-18T07:14:36;29.80;49.50
81488;DHT22;70897;52.464;13.428;2023-09-18T07:17:22;30.00;48.30
81488;DHT22;70897;52.464;13.428;2023-09-18T07:20:08;29.60;49.00
81488;DHT22;70897;52.464;13.428;2023-09-18T07:22:58;29.80;49.00
81488;DHT22;70897;52.464;13.428;2023-09-18T07:25:43;30.00;48.70
81488;DHT22;70897;52.464;13.428;2023-09-18T07:28:29;30.00;48.40
81488;DHT22;70897;52.464;13.428;2023-09-18T07:31:14;30.30;47.10
81488;DHT22;70897;52.464;13.428;2023-09-18T07:33:59;29.40;48.60
81488;DHT22;70897;52.464;13.428;2023-09-18T07:36:44;29.40;48.90
81488;DHT22;70897;52.464;13.428;2023-09-18T07:39:29;29.80;49.00
81488;DHT22;70897;52.464;13.428;2023-09-18T07:42:14;30.50;47.10
81488;DHT22;70897;52.464;13.428;2023-09-18T07:44:59;30.60;46.40
81488;DHT22;70897;52.464;13.428;2023-09-18T07:47:44;29.10;49.10
81488;DHT22;70897;52.464;13.428;2023-09-18T07:50:30;29.40;49.30
81488;DHT22;70897;52.464;13.428;2023-09-18T07:53:16;29.40;48.80
81488;DHT22;70897;52.464;13.428;2023-09-18T07:56:01;28.70;50.40
81488;DHT22;70897;52.464;13.428;2023-09-18T07:58:48;28.10;51.60
81488;DHT22;70897;52.464;13.428;2023-09-18T08:01:33;28.50;50.30
81488;DHT22;70897;52.464;13.428;2023-09-18T08:04:19;28.30;50.30
81488;DHT22;70897;52.464;13.428;2023-09-18T08:07:04;28.70;50.80
81488;DHT22;70897;52.464;13.428;2023-09-18T08:09:52;29.30;49.00
81488;DHT22;70897;52.464;13.428;2023-09-18T08:12:37;29.40;47.60
81488;DHT22;70897;52.464;13.428;2023-09-18T08:15:22;29.90;47.90
81488;DHT22;70897;52.464;13.428;2023-09-18T08:18:07;30.20;47.30
81488;DHT22;70897;52.464;13.428;2023-09-18T08:20:53;29.50;48.50
81488;DHT22;70897;52.464;13.428;2023-09-18T08:23:39;30.30;47.10
81488;DHT22;70897;52.464;13.428;2023-09-18T08:26:24;29.90;47.50
81488;DHT22;70897;52.464;13.428;2023-09-18T08:29:10;29.80;47.50
81488;DHT22;70897;52.464;13.428;2023-09-18T08:31:55;30.00;46.60
81488;DHT22;70897;52.464;13.428;2023-09-18T08:34:40;30.00;46.50
81488;DHT22;70897;52.464;13.428;2023-09-18T08:37:25;30.80;45.60
81488;DHT22;70897;52.464;13.428;2023-09-18T08:40:11;31.10;44.80
81488;DHT22;70897;52.464;13.428;2023-09-18T08:42:58;30.80;45.60
81488;DHT22;70897;52.464;13.428;2023-09-18T08:45:53;30.70;45.20
81488;DHT22;70897;52.464;13.428;2023-09-18T08:48:39;30.40;45.90
81488;DHT22;70897;52.464;13.428;2023-09-18T08:51:25;30.70;45.40
81488;DHT22;70897;52.464;13.428;2023-09-18T08:54:10;30.10;46.10
81488;DHT22;70897;52.464;13.428;2023-09-18T08:56:55;30.10;46.10
81488;DHT22;70897;52.464;13.428;2023-09-18T08:59:41;30.30;45.80
81488;DHT22;70897;52.464;13.428;2023-09-18T09:02:26;30.70;45.30
81488;DHT22;70897;52.464;13.428;2023-09-18T09:05:12;30.40;45.50
81488;DHT22;70897;52.464;13.428;2023-09-18T09:07:57;30.70;44.20
81488;DHT22;70897;52.464;13.428;2023-09-18T09:10:42;30.50;45.30
81488;DHT22;70897;52.464;13.428;2023-09-18T09:13:27;30.60;44.60
81488;DHT22;70897;52.464;13.428;2023-09-18T09:16:13;31.30;43.20
81488;DHT22;70897;52.464;13.428;2023-09-18T09:18:58;31.50;43.30
81488;DHT22;70897;52.464;13.428;2023-09-18T09:21:44;31.40;42.10
81488;DHT22;70897;52.464;13.428;2023-09-18T09:27:22;30.00;45.00
81488;DHT22;70897;52.464;13.428;2023-09-18T09:30:07;29.70;44.90
81488;DHT22;70897;52.464;13.428;2023-09-18T09:32:54;30.40;45.10
81488;DHT22;70897;52.464;13.428;2023-09-18T09:35:40;30.90;44.40
81488;DHT22;70897;52.464;13.428;2023-09-18T09:38:29;31.00;44.00
81488;DHT22;70897;52.464;13.428;2023-09-18T09:41:18;30.50;44.70
81488;DHT22;70897;52.464;13.428;2023-09-18T09:44:05;30.70;44.20
81488;DHT22;70897;52.464;13.428;2023-09-18T09:46:51;31.40;42.90
81488;DHT22;70897;52.464;13.428;2023-09-18T09:49:46;31.10;42.80
81488;DHT22;70897;52.464;13.428;2023-09-18T09:52:33;30.50;44.70
81488;DHT22;70897;52.464;13.428;2023-09-18T09:55:27;30.30;45.30
81488;DHT22;70897;52.464;13.428;2023-09-18T09:58:13;30.00;45.90
81488;DHT22;70897;52.464;13.428;2023-09-18T10:01:03;29.80;46.20
81488;DHT22;70897;52.464;13.428;2023-09-18T10:03:50;29.60;46.10
81488;DHT22;70897;52.464;13.428;2023-09-18T10:06:36;29.60;46.70
81488;DHT22;70897;52.464;13.428;2023-09-18T10:09:22;29.00;47.60
81488;DHT22;70897;52.464;13.428;2023-09-18T10:12:12;28.60;48.40
81488;DHT22;70897;52.464;13.428;2023-09-18T10:14:58;28.50;49.00
81488;DHT22;70897;52.464;13.428;2023-09-18T10:17:43;28.70;48.70
81488;DHT22;70897;52.464;13.428;2023-09-18T10:20:38;28.60;49.60
81488;DHT22;70897;52.464;13.428;2023-09-18T10:23:31;28.80;48.80
81488;DHT22;70897;52.464;13.428;2023-09-18T10:26:22;28.70;48.30
81488;DHT22;70897;52.464;13.428;2023-09-18T10:29:09;28.60;48.40
81488;DHT22;70897;52.464;13.428;2023-09-18T10:31:58;28.40;48.80
81488;DHT22;70897;52.464;13.428;2023-09-18T10:34:43;28.30;49.10
81488;DHT22;70897;52.464;13.428;2023-09-18T10:37:30;28.30;50.20
81488;DHT22;70897;52.464;13.428;2023-09-18T10:40:17;28.40;49.10
81488;DHT22;70897;52.464;13.428;2023-09-18T10:43:02;28.40;48.70
81488;DHT22;70897;52.464;13.428;2023-09-18T10:45:49;28.10;49.00
81488;DHT22;70897;52.464;13.428;2023-09-18T10:48:36;28.10;49.50
81488;DHT22;70897;52.464;13.428;2023-09-18T10:51:22;28.10;49.70
81488;DHT22;70897;52.464;13.428;2023-09-18T10:54:14;28.60;48.80
81488;DHT22;70897;52.464;13.428;2023-09-18T10:56:59;28.70;48.60
81488;DHT22;70897;52.464;13.428;2023-09-18T10:59:47;29.10;48.30
81488;DHT22;70897;52.464;13.428;2023-09-18T11:02:32;28.80;47.90
81488;DHT22;70897;52.464;13.428;2023-09-18T11:05:30;28.10;49.30
81488;DHT22;70897;52.464;13.428;2023-09-18T11:08:33;28.10;50.50
81488;DHT22;70897;52.464;13.428;2023-09-18T11:11:19;28.10;50.90
81488;DHT22;70897;52.464;13.428;2023-09-18T11:14:10;27.60;51.40
81488;DHT22;70897;52.464;13.428;2023-09-18T11:16:56;27.40;52.40
81488;DHT22;70897;52.464;13.428;2023-09-18T11:19:41;27.20;52.70
81488;DHT22;70897;52.464;13.428;2023-09-18T11:22:27;26.90;53.80
81488;DHT22;70897;52.464;13.428;2023-09-18T11:25:35;26.80;54.30
81488;DHT22;70897;52.464;13.428;2023-09-18T11:28:28;26.80;54.90
81488;DHT22;70897;52.464;13.428;2023-09-18T11:31:15;26.70;54.70
81488;DHT22;70897;52.464;13.428;2023-09-18T11:34:11;26.60;55.20
81488;DHT22;70897;52.464;13.428;2023-09-18T11:36:56;26.40;55.90
81488;DHT22;70897;52.464;13.428;2023-09-18T11:39:41;26.30;56.40
81488;DHT22;70897;52.464;13.428;2023-09-18T11:42:29;26.20;56.60
81488;DHT22;70897;52.464;13.428;2023-09-18T11:45:17;26.10;57.30
81488;DHT22;70897;52.464;13.428;2023-09-18T11:48:02;26.10;57.10
81488;DHT22;70897;52.464;13.428;2023-09-18T11:50:48;26.10;57.70
81488;DHT22;70897;52.464;13.428;2023-09-18T11:53:36;26.00;57.80
81488;DHT22;70897;52.464;13.428;2023-09-18T11:56:25;26.00;57.90
81488;DHT22;70897;52.464;13.428;2023-09-18T11:59:10;26.10;57.50
81488;DHT22;70897;52.464;13.428;2023-09-18T12:01:56;26.20;57.80
81488;DHT22;70897;52.464;13.428;2023-09-18T12:04:50;26.30;57.20
81488;DHT22;70897;52.464;13.428;2023-09-18T12:07:35;26.60;56.80
81488;DHT22;70897;52.464;13.428;2023-09-18T12:10:20;26.80;56.10
81488;DHT22;70897;52.464;13.428;2023-09-18T12:13:06;27.00;55.00
81488;DHT22;70897;52.464;13.428;2023-09-18T12:16:03;27.40;53.60
81488;DHT22;70897;52.464;13.428;2023-09-18T12:18:50;27.70;52.70
81488;DHT22;70897;52.464;13.428;2023-09-18T12:21:43;29.10;49.80
81488;DHT22;70897;52.464;13.428;2023-09-18T12:24:30;29.80;48.10
81488;DHT22;70897;52.464;13.428;2023-09-18T12:27:15;29.40;47.90
81488;DHT22;70897;52.464;13.428;2023-09-18T12:30:00;29.20;48.80
81488;DHT22;70897;52.464;13.428;2023-09-18T12:32:45;28.40;49.90
81488;DHT22;70897;52.464;13.428;2023-09-18T12:35:30;28.10;51.10
81488;DHT22;70897;52.464;13.428;2023-09-18T12:38:17;27.90;51.90
81488;DHT22;70897;52.464;13.428;2023-09-18T12:41:04;27.60;51.60
81488;DHT22;70897;52.464;13.428;2023-09-18T12:43:53;27.50;52.00
81488;DHT22;70897;52.464;13.428;2023-09-18T12:46:39;27.40;52.20
81488;DHT22;70897;52.464;13.428;2023-09-18T12:49:30;27.20;52.90
81488;DHT22;70897;52.464;13.428;2023-09-18T12:52:21;27.20;53.40
81488;DHT22;70897;52.464;13.428;2023-09-18T12:55:07;27.20;52.90
81488;DHT22;70897;52.464;13.428;2023-09-18T12:57:53;27.10;52.70
81488;DHT22;70897;52.464;13.428;2023-09-18T13:00:47;27.10;53.30
81488;DHT22;70897;52.464;13.428;2023-09-18T13:03:35;27.00;54.10
81488;DHT22;70897;52.464;13.428;2023-09-18T13:06:21;26.80;54.20
81488;DHT22;70897;52.464;13.428;2023-09-18T13:09:18;26.60;55.10
81488;DHT22;70897;52.464;13.428;2023-09-18T13:12:08;26.50;56.20
81488;DHT22;70897;52.464;13.428;2023-09-18T13:15:00;26.20;56.60
81488;DHT22;70897;52.464;13.428;2023-09-18T13:17:59;26.00;58.70
81488;DHT22;70897;52.464;13.428;2023-09-18T13:20:45;25.60;59.20
81488;DHT22;70897;52.464;13.428;2023-09-18T13:23:33;25.50;61.10
81488;DHT22;70897;52.464;13.428;2023-09-18T13:26:19;25.40;61.50
81488;DHT22;70897;52.464;13.428;2023-09-18T13:29:04;25.20;63.00
81488;DHT22;70897;52.464;13.428;2023-09-18T13:31:53;25.00;63.40
81488;DHT22;70897;52.464;13.428;2023-09-18T13:34:38;25.00;63.20
81488;DHT22;70897;52.464;13.428;2023-09-18T13:37:24;25.00;67.10
81488;DHT22;70897;52.464;13.428;2023-09-18T13:40:10;24.70;70.10
81488;DHT22;70897;52.464;13.428;2023-09-18T13:42:55;24.30;73.00
81488;DHT22;70897;52.464;13.428;2023-09-18T13:45:41;23.80;78.30
81488;DHT22;70897;52.464;13.428;2023-09-18T13:48:26;23.60;80.70
81488;DHT22;70897;52.464;13.428;2023-09-18T13:51:11;23.20;88.90
81488;DHT22;70897;52.464;13.428;2023-09-18T13:53:56;23.00;89.80
81488;DHT22;70897;52.464;13.428;2023-09-18T13:56:42;23.00;92.90
81488;DHT22;70897;52.464;13.428;2023-09-18T13:59:27;23.10;89.70
81488;DHT22;70897;52.464;13.428;2023-09-18T14:02:13;23.40;90.20
81488;DHT22;70897;52.464;13.428;2023-09-18T14:04:58;23.60;84.10
81488;DHT22;70897;52.464;13.428;2023-09-18T14:07:42;23.60;88.10
81488;DHT22;70897;52.464;13.428;2023-09-18T14:10:28;23.70;83.60
81488;DHT22;70897;52.464;13.428;2023-09-18T14:13:13;23.70;84.80
81488;DHT22;70897;52.464;13.428;2023-09-18T14:15:58;23.70;84.40
81488;DHT22;70897;52.464;13.428;2023-09-18T14:18:43;23.70;83.40
81488;DHT22;70897;52.464;13.428;2023-09-18T14:21:28;23.70;81.10
81488;DHT22;70897;52.464;13.428;2023-09-18T14:24:14;23.70;86.40
81488;DHT22;70897;52.464;13.428;2023-09-18T14:26:59;23.60;83.10
81488;DHT22;70897;52.464;13.428;2023-09-18T14:29:44;23.50;80.80
81488;DHT22;70897;52.464;13.428;2023-09-18T14:32:29;23.50;83.50
81488;DHT22;70897;52.464;13.428;2023-09-18T14:35:14;23.50;81.60
81488;DHT22;70897;52.464;13.428;2023-09-18T14:38:00;23.60;79.30
81488;DHT22;70897;52.464;13.428;2023-09-18T14:40:44;23.80;76.70
81488;DHT22;70897;52.464;13.428;2023-09-18T14:43:29;23.90;77.20
81488;DHT22;70897;52.464;13.428;2023-09-18T14:46:14;24.00;74.60
81488;DHT22;70897;52.464;13.428;2023-09-18T14:49:00;24.10;75.20
81488;DHT22;70897;52.464;13.428;2023-09-18T14:51:46;24.10;74.10
81488;DHT22;70897;52.464;13.428;2023-09-18T14:54:31;24.20;72.10
81488;DHT22;70897;52.464;13.428;2023-09-18T14:57:16;24.40;71.70
81488;DHT22;70897;52.464;13.428;2023-09-18T15:00:01;24.40;72.10
81488;DHT22;70897;52.464;13.428;2023-09-18T15:02:50;24.60;69.30
81488;DHT22;70897;52.464;13.428;2023-09-18T15:05:35;24.60;68.20
81488;DHT22;70897;52.464;13.428;2023-09-18T15:08:21;24.70;69.20
81488;DHT22;70897;52.464;13.428;2023-09-18T15:11:06;24.80;67.40
81488;DHT22;70897;52.464;13.428;2023-09-18T15:13:51;24.90;67.00
81488;DHT22;70897;52.464;13.428;2023-09-18T15:16:36;24.90;64.90
81488;DHT22;70897;52.464;13.428;2023-09-18T15:19:21;24.90;66.70
81488;DHT22;70897;52.464;13.428;2023-09-18T15:22:06;24.80;65.20
81488;DHT22;70897;52.464;13.428;2023-09-18T15:24:52;24.80;67.70
81488;DHT22;70897;52.464;13.428;2023-09-18T15:27:37;24.90;65.90
81488;DHT22;70897;52.464;13.428;2023-09-18T15:30:22;24.90;65.20
81488;DHT22;70897;52.464;13.428;2023-09-18T15:33:09;25.00;64.40
81488;DHT22;70897;52.464;13.428;2023-09-18T15:35:55;25.00;64.60
81488;DHT22;70897;52.464;13.428;2023-09-18T15:38:41;24.90;64.00
81488;DHT22;70897;52.464;13.428;2023-09-18T15:41:26;24.80;64.60
81488;DHT22;70897;52.464;13.428;2023-09-18T15:44:12;24.80;64.80
81488;DHT22;70897;52.464;13.428;2023-09-18T15:46:59;24.70;65.90
81488;DHT22;70897;52.464;13.428;2023-09-18T15:49:43;24.60;66.40
81488;DHT22;70897;52.464;13.428;2023-09-18T15:52:28;24.60;65.80
81488;DHT22;70897;52.464;13.428;2023-09-18T15:55:13;24.50;67.70
81488;DHT22;70897;52.464;13.428;2023-09-18T15:57:59;24.40;67.40
81488;DHT22;70897;52.464;13.428;2023-09-18T16:00:44;24.20;68.30
81488;DHT22;70897;52.464;13.428;2023-09-18T16:03:28;24.10;68.50
81488;DHT22;70897;52.464;13.428;2023-09-18T16:06:32;24.10;68.80
81488;DHT22;70897;52.464;13.428;2023-09-18T16:09:18;24.00;69.20
81488;DHT22;70897;52.464;13.428;2023-09-18T16:12:05;23.90;69.80
81488;DHT22;70897;52.464;13.428;2023-09-18T16:14:52;23.90;70.50
81488;DHT22;70897;52.464;13.428;2023-09-18T16:17:36;23.80;71.30
81488;DHT22;70897;52.464;13.428;2023-09-18T16:20:21;23.50;74.00
81488;DHT22;70897;52.464;13.428;2023-09-18T16:23:07;23.20;76.00
81488;DHT22;70897;52.464;13.428;2023-09-18T16:25:52;22.90;80.20
81488;DHT22;70897;52.464;13.428;2023-09-18T16:28:37;22.40;83.40
81488;DHT22;70897;52.464;13.428;2023-09-18T16:31:22;22.20;86.20
81488;DHT22;70897;52.464;13.428;2023-09-18T16:34:07;21.80;90.80
81488;DHT22;70897;52.464;13.428;2023-09-18T16:36:52;21.50;92.00
81488;DHT22;70897;52.464;13.428;2023-09-18T16:39:37;21.40;93.20
81488;DHT22;70897;52.464;13.428;2023-09-18T16:42:22;21.20;94.30
81488;DHT22;70897;52.464;13.428;2023-09-18T16:45:08;21.20;94.30
81488;DHT22;70897;52.464;13.428;2023-09-18T16:47:53;21.00;94.90
81488;DHT22;70897;52.464;13.428;2023-09-18T16:50:38;21.00;95.50
81488;DHT22;70897;52.464;13.428;2023-09-18T16:53:24;21.10;94.60
81488;DHT22;70897;52.464;13.428;2023-09-18T16:56:09;21.20;95.00
81488;DHT22;70897;52.464;13.428;2023-09-18T16:58:54;21.20;94.90
81488;DHT22;70897;52.464;13.428;2023-09-18T17:01:39;21.00;95.50
81488;DHT22;70897;52.464;13.428;2023-09-18T17:04:24;20.90;96.80
81488;DHT22;70897;52.464;13.428;2023-09-18T17:07:10;20.60;97.80
81488;DHT22;70897;52.464;13.428;2023-09-18T17:09:55;20.50;98.60
81488;DHT22;70897;52.464;13.428;2023-09-18T17:12:40;20.40;99.20
81488;DHT22;70897;52.464;13.428;2023-09-18T17:15:25;20.30;99.50